createdAt,value
2022-11-08T00:01:44.413Z,8.76
2022-11-08T00:04:16.892Z,8.76
2022-11-08T00:07:03.383Z,8.78
2022-11-08T00:09:50.382Z,8.81
2022-11-08T00:12:36.939Z,8.84
2022-11-08T00:15:07.142Z,8.86
2022-11-08T00:17:37.752Z,8.86
2022-11-08T00:20:10.426Z,8.82
2022-11-08T00:22:42.047Z,8.84
2022-11-08T00:25:12.195Z,8.85
2022-11-08T00:38:23.108Z,8.91
2022-11-08T00:40:54.823Z,8.95
2022-11-08T00:43:26.959Z,8.98
2022-11-08T00:45:55.802Z,8.98
2022-11-08T00:48:24.491Z,8.97
2022-11-08T00:51:03.919Z,8.99
2022-11-08T00:53:34.824Z,8.99
2022-11-08T00:56:04.536Z,8.96
2022-11-08T00:58:33.702Z,8.95
2022-11-08T01:01:02.652Z,8.92
2022-11-08T01:03:31.847Z,8.92
2022-11-08T01:06:08.600Z,8.93
2022-11-08T01:08:39.178Z,8.96
2022-11-08T01:11:10.110Z,8.99
2022-11-08T01:13:42.164Z,9.04
2022-11-08T01:16:13.775Z,9.05
2022-11-08T01:18:45.938Z,9.03
2022-11-08T01:21:15.466Z,8.99
2022-11-08T01:23:50.871Z,8.97
2022-11-08T01:26:22.121Z,8.96
2022-11-08T01:28:53.271Z,8.94
2022-11-08T01:31:24.195Z,8.92
2022-11-08T01:33:58.494Z,8.92
2022-11-08T01:36:30.133Z,8.93
2022-11-08T01:39:00.534Z,8.95
2022-11-08T01:41:29.740Z,8.96
2022-11-08T01:43:59.240Z,8.96
2022-11-08T01:46:42.915Z,8.95
2022-11-08T01:49:28.208Z,8.95
2022-11-08T01:52:07.808Z,8.97
2022-11-08T01:54:42.958Z,8.95
2022-11-08T01:57:22.111Z,8.95
2022-11-08T01:59:55.762Z,8.94
2022-11-08T02:02:25.146Z,8.95
2022-11-08T02:04:56.486Z,8.99
2022-11-08T02:07:26.726Z,8.99
2022-11-08T02:09:58.663Z,8.97
2022-11-08T02:12:29.507Z,8.98
2022-11-08T02:15:04.838Z,9.00
2022-11-08T02:17:33.658Z,8.99
2022-11-08T02:20:04.600Z,8.99
2022-11-08T02:22:42.010Z,8.99
2022-11-08T02:25:15.753Z,8.95
2022-11-08T02:27:46.634Z,8.91
2022-11-08T02:30:15.726Z,8.89
2022-11-08T02:32:46.216Z,8.85
2022-11-08T02:35:22.564Z,8.83
2022-11-08T02:37:51.894Z,8.82
2022-11-08T02:40:22.580Z,8.79
2022-11-08T02:42:54.699Z,8.73
2022-11-08T02:45:23.267Z,8.68
2022-11-08T02:47:54.693Z,8.66
2022-11-08T02:50:23.841Z,8.60
2022-11-08T02:52:52.697Z,8.55
2022-11-08T02:55:23.155Z,8.51
2022-11-08T02:57:52.056Z,8.51
2022-11-08T03:00:21.048Z,8.51
2022-11-08T03:02:53.301Z,8.54
2022-11-08T03:05:23.607Z,8.62
2022-11-08T03:07:52.763Z,8.66
2022-11-08T03:10:25.700Z,8.74
2022-11-08T03:12:58.972Z,8.76
2022-11-08T03:15:27.753Z,8.79
2022-11-08T03:17:57.382Z,8.81
2022-11-08T03:20:32.176Z,8.81
2022-11-08T03:23:03.086Z,8.82
2022-11-08T03:25:41.042Z,8.79
2022-11-08T03:28:10.974Z,8.81
2022-11-08T03:30:42.519Z,8.81
2022-11-08T03:33:11.382Z,8.82
2022-11-08T03:35:40.056Z,8.80
2022-11-08T03:38:12.293Z,8.81
2022-11-08T03:40:42.559Z,8.80
2022-11-08T03:43:11.842Z,8.80
2022-11-08T03:45:40.961Z,8.79
2022-11-08T03:48:10.187Z,8.80
2022-11-08T03:50:38.711Z,8.84
2022-11-08T03:53:09.268Z,8.84
2022-11-08T03:55:40.482Z,8.85
2022-11-08T03:58:10.819Z,8.86
2022-11-08T04:00:44.879Z,8.87
2022-11-08T04:03:16.657Z,8.88
2022-11-08T04:05:47.789Z,8.87
2022-11-08T04:08:16.902Z,8.88
2022-11-08T04:10:47.190Z,8.91
2022-11-08T04:13:37.612Z,8.91
2022-11-08T04:16:07.279Z,8.92
2022-11-08T04:19:08.630Z,8.92
2022-11-08T04:21:38.593Z,8.95
2022-11-08T04:24:08.733Z,8.96
2022-11-08T04:26:39.779Z,8.94
2022-11-08T04:29:14.410Z,8.97
2022-11-08T04:31:46.524Z,9.00
2022-11-08T04:34:21.473Z,9.02
2022-11-08T04:36:53.939Z,9.05
2022-11-08T04:39:25.809Z,9.07
2022-11-08T04:42:01.896Z,9.07
2022-11-08T04:44:48.422Z,9.07
2022-11-08T04:47:17.285Z,9.04
2022-11-08T04:49:49.141Z,9.03
2022-11-08T04:52:18.439Z,9.02
2022-11-08T04:54:49.265Z,9.02
2022-11-08T04:57:18.877Z,9.00
2022-11-08T04:59:58.389Z,9.01
2022-11-08T05:02:26.994Z,8.99
2022-11-08T05:04:57.361Z,8.98
2022-11-08T05:07:26.310Z,9.00
2022-11-08T05:10:02.192Z,9.00
2022-11-08T05:12:36.425Z,8.99
2022-11-08T05:15:11.362Z,8.94
2022-11-08T05:17:44.114Z,8.86
2022-11-08T05:20:37.811Z,8.76
2022-11-08T05:23:26.841Z,8.67
2022-11-08T05:26:06.934Z,8.45
2022-11-08T05:28:58.943Z,8.41
2022-11-08T05:31:35.563Z,8.30
2022-11-08T05:34:11.770Z,8.24
2022-11-08T05:36:56.352Z,8.13
2022-11-08T05:39:31.927Z,8.16
2022-11-08T05:42:20.185Z,8.08
2022-11-08T05:45:01.972Z,8.00
2022-11-08T05:47:38.841Z,8.00
2022-11-08T05:50:15.474Z,7.96
2022-11-08T05:52:56.921Z,7.99
2022-11-08T05:55:34.737Z,8.02
2022-11-08T05:58:07.980Z,7.94
2022-11-08T06:00:43.714Z,7.95
2022-11-08T06:03:29.968Z,8.01
2022-11-08T06:06:07.030Z,7.94
2022-11-08T06:09:12.572Z,7.83
2022-11-08T06:12:11.888Z,7.83
2022-11-08T06:14:54.833Z,7.73
2022-11-08T06:18:24.553Z,7.65
2022-11-08T06:21:41.654Z,7.63
2022-11-08T06:32:25.012Z,7.59
2022-11-08T06:36:12.627Z,7.53
2022-11-08T06:39:20.412Z,7.53
2022-11-08T06:42:19.705Z,7.51
2022-11-08T06:53:28.946Z,7.89
2022-11-08T07:09:09.819Z,8.16
2022-11-08T07:12:36.194Z,8.21
2022-11-08T07:16:04.898Z,8.30
2022-11-08T07:19:40.212Z,8.39
2022-11-08T07:23:02.733Z,8.58
2022-11-08T07:30:14.717Z,8.71
2022-11-08T07:34:05.975Z,8.84
2022-11-08T07:42:49.695Z,9.08
2022-11-08T08:22:44.537Z,10.27
2022-11-08T09:13:30.697Z,11.59
2022-11-08T09:16:31.452Z,11.82
2022-11-08T09:57:14.575Z,12.73
2022-11-08T10:04:55.662Z,12.99
2022-11-08T10:22:12.193Z,13.31
2022-11-08T10:30:34.128Z,13.35
2022-11-08T10:34:04.060Z,13.52
2022-11-08T13:07:20.055Z,14.26
2022-11-08T13:10:27.105Z,14.25
2022-11-08T13:13:56.868Z,14.09
2022-11-08T13:16:52.581Z,13.94
2022-11-08T13:20:10.761Z,13.95
2022-11-08T13:23:49.013Z,13.85
2022-11-08T13:30:23.548Z,13.86
2022-11-08T13:33:38.708Z,13.83
2022-11-08T13:43:24.981Z,13.57
2022-11-08T13:50:47.905Z,13.51
2022-11-08T13:54:03.065Z,13.38
2022-11-08T13:58:35.593Z,13.36
2022-11-08T14:02:05.318Z,13.31
2022-11-08T14:05:10.325Z,13.17
2022-11-08T14:45:33.246Z,11.80
2022-11-08T14:48:24.718Z,11.77
2022-11-08T14:51:11.709Z,11.76
2022-11-08T14:53:57.325Z,11.68
2022-11-08T14:57:12.689Z,11.68
2022-11-08T15:00:27.474Z,11.55
2022-11-08T15:03:32.883Z,11.38
2022-11-08T15:06:14.657Z,11.25
2022-11-08T15:09:05.972Z,11.21
2022-11-08T15:11:52.498Z,11.21
2022-11-08T15:15:08.862Z,11.04
2022-11-08T15:18:22.540Z,10.99
2022-11-08T15:21:00.290Z,10.85
2022-11-08T15:24:14.783Z,10.80
2022-11-08T15:26:58.995Z,10.75
2022-11-08T15:29:28.409Z,10.66
2022-11-08T15:32:03.901Z,10.64
2022-11-08T15:34:55.508Z,10.56
2022-11-08T15:37:38.191Z,10.57
2022-11-08T15:40:25.220Z,10.53
2022-11-08T15:42:54.861Z,10.57
2022-11-08T15:45:33.317Z,10.48
2022-11-08T15:48:25.240Z,10.44
2022-11-08T15:51:02.496Z,10.48
2022-11-08T15:53:37.977Z,10.35
2022-11-08T15:56:14.330Z,10.35
2022-11-08T15:58:45.278Z,10.30
2022-11-08T16:01:26.195Z,10.25
2022-11-08T16:03:56.818Z,10.19
2022-11-08T16:06:37.614Z,10.11
2022-11-08T16:09:27.567Z,10.02
2022-11-08T16:12:01.398Z,9.93
2022-11-08T16:14:36.010Z,9.87
2022-11-08T16:17:08.794Z,9.89
2022-11-08T16:19:41.025Z,9.76
2022-11-08T16:22:19.410Z,9.70
2022-11-08T16:25:01.037Z,9.60
2022-11-08T16:27:57.777Z,9.54
2022-11-08T16:30:30.227Z,9.50
2022-11-08T16:32:58.739Z,9.49
2022-11-08T16:35:28.299Z,9.52
2022-11-08T16:38:05.793Z,9.52
2022-11-08T16:40:41.448Z,9.50
2022-11-08T16:43:28.021Z,9.51
2022-11-08T16:46:07.586Z,9.43
2022-11-08T16:48:44.589Z,9.39
2022-11-08T16:51:20.331Z,9.43
2022-11-08T16:53:55.931Z,9.34
2022-11-08T16:56:33.057Z,9.31
2022-11-08T16:59:09.636Z,9.26
2022-11-08T17:01:46.957Z,9.30
2022-11-08T17:04:30.337Z,9.23
2022-11-08T17:07:06.887Z,9.26
2022-11-08T17:09:39.367Z,9.09
2022-11-08T17:12:24.727Z,9.09
2022-11-08T17:15:04.555Z,9.08
2022-11-08T17:17:37.235Z,9.03
2022-11-08T17:20:14.304Z,9.12
2022-11-08T17:23:01.333Z,9.10
2022-11-08T17:25:33.154Z,9.12
2022-11-08T17:28:08.701Z,9.01
2022-11-08T17:30:46.330Z,8.97
2022-11-08T17:33:26.946Z,8.99
2022-11-08T17:36:25.876Z,8.89
2022-11-08T17:39:00.495Z,8.88
2022-11-08T17:41:33.920Z,8.86
2022-11-08T17:44:08.242Z,8.74
2022-11-08T17:46:41.229Z,8.75
2022-11-08T17:49:10.896Z,8.63
2022-11-08T17:51:44.282Z,8.60
2022-11-08T17:54:20.041Z,8.60
2022-11-08T17:57:07.252Z,8.51
2022-11-08T17:59:45.651Z,8.47
2022-11-08T18:02:19.902Z,8.45
2022-11-08T18:04:49.531Z,8.47
2022-11-08T18:07:18.998Z,8.48
2022-11-08T18:09:48.262Z,8.48
2022-11-08T18:12:22.260Z,8.42
2022-11-08T18:14:55.531Z,8.40
2022-11-08T18:17:27.532Z,8.36
2022-11-08T18:19:56.273Z,8.34
2022-11-08T18:22:25.521Z,8.27
2022-11-08T18:24:55.303Z,8.26
2022-11-08T18:27:26.944Z,8.21
2022-11-08T18:29:57.429Z,8.20
2022-11-08T18:32:42.541Z,8.18
2022-11-08T18:35:14.944Z,8.20
2022-11-08T18:37:46.207Z,8.26
2022-11-08T18:40:15.312Z,8.21
2022-11-08T18:42:45.070Z,8.26
2022-11-08T18:45:26.586Z,8.21
2022-11-08T18:47:55.887Z,8.21
2022-11-08T18:50:28.196Z,8.22
2022-11-08T18:53:04.852Z,8.20
2022-11-08T18:55:37.722Z,8.18
2022-11-08T18:58:10.608Z,8.18
2022-11-08T19:00:41.094Z,8.19
2022-11-08T19:03:12.863Z,8.16
2022-11-08T19:05:47.711Z,8.16
2022-11-08T19:08:43.445Z,8.20
2022-11-08T19:11:14.758Z,8.22
2022-11-08T19:13:43.917Z,8.15
2022-11-08T19:16:16.918Z,8.06
2022-11-08T19:18:49.764Z,8.03
2022-11-08T19:21:21.663Z,8.02
2022-11-08T19:23:55.341Z,7.98
2022-11-08T19:26:28.816Z,7.94
2022-11-08T19:29:05.482Z,7.95
2022-11-08T19:31:42.200Z,7.88
2022-11-08T19:34:21.007Z,7.87
2022-11-08T19:36:55.677Z,7.84
2022-11-08T19:39:25.204Z,7.83
2022-11-08T19:42:00.270Z,7.78
2022-11-08T19:44:28.818Z,7.71
2022-11-08T19:47:00.785Z,7.67
2022-11-08T19:49:42.217Z,7.63
2022-11-08T19:52:18.055Z,7.58
2022-11-08T19:54:50.694Z,7.49
2022-11-08T19:57:24.247Z,7.47
2022-11-08T19:59:53.550Z,7.41
2022-11-08T20:02:24.159Z,7.37
2022-11-08T20:04:56.508Z,7.33
2022-11-08T20:07:25.151Z,7.29
2022-11-08T20:09:57.499Z,7.26
2022-11-08T20:12:26.451Z,7.24
2022-11-08T20:15:01.750Z,7.22
2022-11-08T20:17:37.691Z,7.23
2022-11-08T20:20:15.057Z,7.15
2022-11-08T20:22:48.470Z,7.15
2022-11-08T20:25:33.661Z,7.12
2022-11-08T20:28:13.418Z,7.01
2022-11-08T20:31:54.136Z,6.97
2022-11-08T20:34:43.714Z,6.95
2022-11-08T20:37:22.565Z,7.02
2022-11-08T20:40:16.173Z,6.97
2022-11-08T20:42:49.311Z,6.90
2022-11-08T20:45:25.903Z,6.90
2022-11-08T20:48:02.450Z,6.93
2022-11-08T20:50:55.915Z,6.87
2022-11-08T20:53:34.722Z,6.89
2022-11-08T20:56:05.699Z,6.89
2022-11-08T20:58:42.642Z,6.85
2022-11-08T21:01:24.612Z,6.84
2022-11-08T21:03:58.782Z,6.78
2022-11-08T21:06:37.765Z,6.78
2022-11-08T21:09:41.639Z,6.65
2022-11-08T21:12:20.844Z,6.72
2022-11-08T21:14:56.271Z,6.66
2022-11-08T21:17:35.841Z,6.50
2022-11-08T21:20:09.830Z,6.51
2022-11-08T21:22:47.768Z,6.49
2022-11-08T21:25:22.144Z,6.42
2022-11-08T21:27:57.953Z,6.38
2022-11-08T21:30:36.377Z,6.35
2022-11-08T21:33:09.880Z,6.24
2022-11-08T21:35:39.896Z,6.29
2022-11-08T21:38:13.096Z,6.26
2022-11-08T21:40:42.602Z,6.24
2022-11-08T21:43:11.579Z,6.23
2022-11-08T21:45:41.307Z,6.19
2022-11-08T21:48:15.157Z,6.19
2022-11-08T21:50:55.979Z,6.17
2022-11-08T21:53:29.698Z,6.14
2022-11-08T21:56:04.458Z,6.12
2022-11-08T21:58:33.769Z,6.09
2022-11-08T22:02:05.033Z,6.06
2022-11-08T22:04:39.145Z,6.07
2022-11-08T22:07:11.649Z,5.99
2022-11-08T22:10:18.718Z,5.99
2022-11-08T22:13:08.790Z,6.08
2022-11-08T22:15:53.222Z,6.11
2022-11-08T22:19:03.580Z,6.10
2022-11-08T22:21:41.971Z,6.08
2022-11-08T22:24:34.439Z,6.09
2022-11-08T22:27:23.072Z,5.97
2022-11-08T22:29:57.328Z,6.02
2022-11-08T22:32:56.769Z,6.02
2022-11-08T22:35:38.480Z,6.02
2022-11-08T22:38:29.536Z,5.93
2022-11-08T22:44:54.936Z,5.90
2022-11-08T22:47:34.529Z,6.00
2022-11-08T22:56:07.059Z,5.95
2022-11-08T22:58:46.370Z,5.92
2022-11-08T23:01:16.784Z,5.88
2022-11-08T23:03:48.613Z,5.82
2022-11-08T23:06:26.794Z,5.80
2022-11-08T23:08:58.827Z,5.74
2022-11-08T23:14:51.211Z,5.67
2022-11-08T23:17:26.668Z,5.58
2022-11-08T23:20:23.305Z,5.57
2022-11-08T23:23:22.497Z,5.52
2022-11-08T23:25:54.669Z,5.49
2022-11-08T23:28:50.291Z,5.48
2022-11-08T23:31:40.531Z,5.44
2022-11-08T23:34:43.796Z,5.40
2022-11-08T23:37:43.377Z,5.39
2022-11-08T23:40:34.337Z,5.37
2022-11-08T23:43:32.095Z,5.37
2022-11-08T23:46:10.174Z,5.32
2022-11-08T23:48:51.351Z,5.35
2022-11-08T23:51:49.937Z,5.34
2022-11-08T23:54:36.559Z,5.42
2022-11-08T23:57:17.356Z,5.37
